createdAt,value
2023-01-13T00:01:19.042Z,1.03
2023-01-13T00:03:47.927Z,1.04
2023-01-13T00:06:18.039Z,1.01
2023-01-13T00:08:49.187Z,1.01
2023-01-13T00:11:19.086Z,1.03
2023-01-13T00:13:47.746Z,0.99
2023-01-13T00:16:18.605Z,1.01
2023-01-13T00:18:48.576Z,1.05
2023-01-13T00:21:19.578Z,0.98
2023-01-13T00:23:48.377Z,1.01
2023-01-13T00:26:20.601Z,1.04
2023-01-13T00:28:49.684Z,1.09
2023-01-13T00:31:19.993Z,1.08
2023-01-13T00:33:49.736Z,1.05
2023-01-13T00:36:20.062Z,1.10
2023-01-13T00:38:49.110Z,1.06
2023-01-13T00:41:21.107Z,1.12
2023-01-13T00:43:49.347Z,1.13
2023-01-13T00:46:20.762Z,1.14
2023-01-13T00:48:49.987Z,1.18
2023-01-13T00:51:21.474Z,1.23
2023-01-13T00:53:52.096Z,1.14
2023-01-13T00:56:40.868Z,1.12
2023-01-13T00:59:12.650Z,1.19
2023-01-13T01:01:42.233Z,1.17
2023-01-13T01:04:11.432Z,1.18
2023-01-13T01:06:40.141Z,1.21
2023-01-13T01:09:09.093Z,1.12
2023-01-13T01:11:39.188Z,1.19
2023-01-13T01:14:07.798Z,1.19
2023-01-13T01:16:36.568Z,1.22
2023-01-13T01:19:05.383Z,1.21
2023-01-13T01:21:34.290Z,1.23
2023-01-13T01:24:04.801Z,1.27
2023-01-13T01:26:34.000Z,1.33
2023-01-13T01:29:04.245Z,1.32
2023-01-13T01:31:34.948Z,1.34
2023-01-13T01:34:04.336Z,1.34
2023-01-13T01:36:35.100Z,1.40
2023-01-13T01:39:04.834Z,1.37
2023-01-13T01:41:34.776Z,1.36
2023-01-13T01:44:08.732Z,1.39
2023-01-13T01:46:39.864Z,1.37
2023-01-13T01:49:15.657Z,1.46
2023-01-13T01:51:48.257Z,1.42
2023-01-13T01:54:21.955Z,1.46
2023-01-13T01:56:52.195Z,1.48
2023-01-13T01:59:22.390Z,1.47
2023-01-13T02:01:51.385Z,1.50
2023-01-13T02:04:25.267Z,1.59
2023-01-13T02:06:55.291Z,1.61
2023-01-13T02:09:24.158Z,1.61
2023-01-13T02:12:10.206Z,1.62
2023-01-13T02:14:42.325Z,1.62
2023-01-13T02:17:24.733Z,1.63
2023-01-13T02:20:29.527Z,1.65
2023-01-13T02:23:36.762Z,1.71
2023-01-13T02:26:42.493Z,1.76
2023-01-13T02:29:38.439Z,1.71
2023-01-13T02:32:20.491Z,1.74
2023-01-13T02:34:57.480Z,1.74
2023-01-13T02:37:31.606Z,1.77
2023-01-13T02:40:05.233Z,1.81
2023-01-13T02:42:52.953Z,1.78
2023-01-13T02:45:25.753Z,1.75
2023-01-13T02:48:00.184Z,1.78
2023-01-13T02:50:34.019Z,1.74
2023-01-13T02:53:07.462Z,1.80
2023-01-13T02:55:39.232Z,1.82
2023-01-13T02:58:11.579Z,1.82
2023-01-13T03:00:41.731Z,1.83
2023-01-13T03:03:11.769Z,1.85
2023-01-13T03:05:43.530Z,1.80
2023-01-13T03:08:22.248Z,1.89
2023-01-13T03:11:02.622Z,1.86
2023-01-13T03:13:48.196Z,1.85
2023-01-13T03:16:24.819Z,1.90
2023-01-13T03:19:08.172Z,1.85
2023-01-13T03:21:42.228Z,1.92
2023-01-13T03:24:17.148Z,1.92
2023-01-13T03:26:50.783Z,1.92
2023-01-13T03:29:24.667Z,1.87
2023-01-13T03:31:59.407Z,1.88
2023-01-13T03:34:33.833Z,1.88
2023-01-13T03:37:06.258Z,1.91
2023-01-13T03:39:41.147Z,1.90
2023-01-13T03:42:13.449Z,1.91
2023-01-13T03:44:45.408Z,1.93
2023-01-13T03:47:22.817Z,1.97
2023-01-13T03:49:58.208Z,1.95
2023-01-13T03:52:30.586Z,1.94
2023-01-13T03:55:04.040Z,1.97
2023-01-13T03:57:37.308Z,1.93
2023-01-13T04:00:09.976Z,2.01
2023-01-13T04:03:17.149Z,2.01
2023-01-13T04:05:55.229Z,2.01
2023-01-13T04:08:29.740Z,2.09
2023-01-13T04:11:05.443Z,2.04
2023-01-13T04:13:39.365Z,2.11
2023-01-13T04:16:16.268Z,2.03
2023-01-13T04:18:45.350Z,2.13
2023-01-13T04:21:15.894Z,2.18
2023-01-13T04:23:47.915Z,2.14
2023-01-13T04:26:20.071Z,2.19
2023-01-13T04:28:49.588Z,2.19
2023-01-13T04:31:20.838Z,2.24
2023-01-13T04:33:53.023Z,2.23
2023-01-13T04:36:27.936Z,2.25
2023-01-13T04:38:59.547Z,2.21
2023-01-13T04:41:28.727Z,2.20
2023-01-13T04:44:00.474Z,2.29
2023-01-13T04:46:29.553Z,2.25
2023-01-13T04:48:58.547Z,2.26
2023-01-13T04:51:29.251Z,2.22
2023-01-13T04:53:59.648Z,2.19
2023-01-13T04:56:30.350Z,2.24
2023-01-13T04:59:07.213Z,2.20
2023-01-13T05:01:36.476Z,2.25
2023-01-13T05:04:05.929Z,2.29
2023-01-13T05:06:40.241Z,2.26
2023-01-13T05:09:16.388Z,2.26
2023-01-13T05:12:02.369Z,2.26
2023-01-13T05:14:48.591Z,2.25
2023-01-13T05:17:21.966Z,2.27
2023-01-13T05:19:53.829Z,2.27
2023-01-13T05:22:43.951Z,2.29
2023-01-13T05:25:26.432Z,2.34
2023-01-13T05:27:57.330Z,2.34
2023-01-13T05:30:31.060Z,2.27
2023-01-13T05:33:00.279Z,2.22
2023-01-13T05:35:29.542Z,2.21
2023-01-13T05:38:04.472Z,2.29
2023-01-13T05:40:56.588Z,2.25
2023-01-13T05:43:29.164Z,2.24
2023-01-13T05:46:03.525Z,2.24
2023-01-13T05:48:40.534Z,2.25
2023-01-13T05:51:11.647Z,2.29
2023-01-13T05:53:45.110Z,2.33
2023-01-13T05:56:14.425Z,2.32
2023-01-13T05:58:43.627Z,2.34
2023-01-13T06:01:12.676Z,2.41
2023-01-13T06:03:41.643Z,2.40
2023-01-13T06:06:10.634Z,2.47
2023-01-13T06:08:39.995Z,2.49
2023-01-13T06:11:10.285Z,2.42
2023-01-13T06:13:39.353Z,2.38
2023-01-13T06:16:08.553Z,2.33
2023-01-13T06:18:37.327Z,2.36
2023-01-13T06:21:06.292Z,2.38
2023-01-13T06:23:38.901Z,2.38
2023-01-13T06:26:14.971Z,2.38
2023-01-13T06:28:43.930Z,2.36
2023-01-13T06:31:13.106Z,2.36
2023-01-13T06:33:46.817Z,2.36
2023-01-13T06:36:22.855Z,2.31
2023-01-13T06:38:54.618Z,2.36
2023-01-13T06:41:39.767Z,2.32
2023-01-13T06:44:08.970Z,2.35
2023-01-13T06:46:40.638Z,2.32
2023-01-13T06:49:10.546Z,2.29
2023-01-13T06:51:41.885Z,2.34
2023-01-13T06:54:37.213Z,2.39
2023-01-13T06:57:10.666Z,2.33
2023-01-13T06:59:54.344Z,2.32
2023-01-13T07:02:36.308Z,2.30
2023-01-13T07:05:13.752Z,2.28
2023-01-13T07:07:45.437Z,2.27
2023-01-13T07:10:24.145Z,2.23
2023-01-13T07:13:25.738Z,2.22
2023-01-13T07:16:05.990Z,2.27
2023-01-13T07:18:41.986Z,2.35
2023-01-13T07:21:13.375Z,2.30
2023-01-13T07:23:43.253Z,2.32
2023-01-13T07:26:16.373Z,2.32
2023-01-13T07:28:49.531Z,2.28
2023-01-13T07:31:21.512Z,2.23
2023-01-13T07:33:53.081Z,2.28
2023-01-13T07:36:21.787Z,2.30
2023-01-13T07:38:50.479Z,2.28
2023-01-13T07:41:36.804Z,2.27
2023-01-13T07:44:10.810Z,2.29
2023-01-13T07:46:40.515Z,2.30
2023-01-13T07:49:10.006Z,2.27
2023-01-13T07:51:39.866Z,2.32
2023-01-13T07:54:09.715Z,2.32
2023-01-13T07:56:38.725Z,2.36
2023-01-13T07:59:08.973Z,2.39
2023-01-13T08:01:37.730Z,2.41
2023-01-13T08:04:06.911Z,2.38
2023-01-13T08:06:36.815Z,2.31
2023-01-13T08:09:05.669Z,2.30
2023-01-13T08:11:34.250Z,2.27
2023-01-13T08:14:03.371Z,2.25
2023-01-13T08:16:35.149Z,2.25
2023-01-13T08:19:06.815Z,2.26
2023-01-13T08:21:35.506Z,2.25
2023-01-13T08:24:04.208Z,2.24
2023-01-13T08:26:33.423Z,2.30
2023-01-13T08:29:01.982Z,2.33
2023-01-13T08:31:30.746Z,2.28
2023-01-13T08:34:01.172Z,2.33
2023-01-13T08:36:30.047Z,2.29
2023-01-13T08:38:58.707Z,2.36
2023-01-13T08:41:41.521Z,2.34
2023-01-13T08:44:10.730Z,2.25
2023-01-13T08:46:39.567Z,2.23
2023-01-13T08:49:10.128Z,2.23
2023-01-13T08:51:39.147Z,2.17
2023-01-13T08:54:08.087Z,2.17
2023-01-13T08:56:37.053Z,2.21
2023-01-13T08:59:06.304Z,2.31
2023-01-13T09:01:35.269Z,2.41
2023-01-13T09:04:04.151Z,2.41
2023-01-13T09:06:35.691Z,2.32
2023-01-13T09:09:04.576Z,2.30
2023-01-13T09:11:53.054Z,2.38
2023-01-13T09:14:23.007Z,2.30
2023-01-13T09:16:52.070Z,2.28
2023-01-13T09:19:20.851Z,2.29
2023-01-13T09:21:52.727Z,2.34
2023-01-13T09:24:22.097Z,2.36
2023-01-13T09:26:51.173Z,2.27
2023-01-13T09:29:20.171Z,2.25
2023-01-13T09:31:50.672Z,2.29
2023-01-13T09:34:39.086Z,2.37
2023-01-13T09:37:10.945Z,2.39
2023-01-13T09:39:39.851Z,2.39
2023-01-13T09:42:37.989Z,2.47
2023-01-13T09:45:14.436Z,2.51
2023-01-13T09:47:51.403Z,2.52
2023-01-13T09:50:26.387Z,2.49
2023-01-13T09:52:57.333Z,2.45
2023-01-13T09:55:31.453Z,2.50
2023-01-13T09:58:00.485Z,2.35
2023-01-13T10:00:37.050Z,2.36
2023-01-13T10:03:26.925Z,2.33
2023-01-13T10:06:00.971Z,2.46
2023-01-13T10:08:34.802Z,2.50
2023-01-13T10:11:31.754Z,2.58
2023-01-13T10:14:02.686Z,2.45
2023-01-13T10:17:01.533Z,2.47
2023-01-13T10:19:34.961Z,2.44
2023-01-13T10:22:28.512Z,2.40
2023-01-13T10:25:18.491Z,2.35
2023-01-13T10:27:50.840Z,2.35
2023-01-13T10:30:23.240Z,2.36
2023-01-13T10:32:56.775Z,2.34
2023-01-13T10:35:56.508Z,2.37
2023-01-13T10:38:28.042Z,2.34
2023-01-13T10:41:00.239Z,2.24
2023-01-13T10:43:31.614Z,2.28
2023-01-13T10:46:04.557Z,2.26
2023-01-13T10:48:42.690Z,2.30
2023-01-13T10:51:24.437Z,2.35
2023-01-13T10:54:04.209Z,2.27
2023-01-13T10:56:36.024Z,2.19
2023-01-13T10:59:23.695Z,2.20
2023-01-13T11:02:04.059Z,2.23
2023-01-13T11:04:39.009Z,2.20
2023-01-13T11:07:18.245Z,2.19
2023-01-13T11:09:47.093Z,2.21
2023-01-13T11:15:17.018Z,2.31
2023-01-13T11:17:52.089Z,2.27
2023-01-13T11:20:29.961Z,2.17
2023-01-13T11:23:00.812Z,2.12
2023-01-13T11:25:41.707Z,2.13
2023-01-13T11:28:23.845Z,2.26
2023-01-13T11:30:58.377Z,2.23
2023-01-13T11:33:34.803Z,2.23
2023-01-13T11:36:09.934Z,2.20
2023-01-13T11:38:46.262Z,2.16
2023-01-13T11:41:30.092Z,2.16
2023-01-13T11:44:09.923Z,2.17
2023-01-13T11:46:41.804Z,2.18
2023-01-13T11:49:15.657Z,2.17
2023-01-13T11:51:51.793Z,2.13
2023-01-13T11:55:02.812Z,2.12
2023-01-13T11:57:51.851Z,2.18
2023-01-13T12:00:34.694Z,2.19
2023-01-13T12:03:20.687Z,2.20
2023-01-13T12:06:03.230Z,2.12
2023-01-13T12:08:53.372Z,2.10
2023-01-13T12:11:29.678Z,2.07
2023-01-13T12:14:17.720Z,2.13
2023-01-13T12:16:51.093Z,2.06
2023-01-13T12:19:31.308Z,2.10
2023-01-13T12:22:09.940Z,2.11
2023-01-13T12:24:46.097Z,2.09
2023-01-13T12:27:21.974Z,2.05
2023-01-13T12:29:55.547Z,1.99
2023-01-13T12:32:32.666Z,1.94
2023-01-13T12:35:25.256Z,1.93
2023-01-13T12:38:02.492Z,2.05
2023-01-13T12:40:44.013Z,2.06
2023-01-13T12:43:35.829Z,1.96
2023-01-13T12:46:36.085Z,1.93
2023-01-13T12:49:08.952Z,1.96
2023-01-13T12:52:00.457Z,1.87
2023-01-13T12:54:50.300Z,1.92
2023-01-13T12:57:23.252Z,1.92
2023-01-13T13:00:19.331Z,1.89
2023-01-13T13:03:20.872Z,1.96
2023-01-13T13:05:58.488Z,1.82
2023-01-13T13:08:48.913Z,1.78
2023-01-13T13:11:57.219Z,1.79
2023-01-13T13:15:04.590Z,1.86
2023-01-13T13:18:01.859Z,1.91
2023-01-13T13:20:56.574Z,1.94
2023-01-13T13:23:49.503Z,1.92
2023-01-13T13:26:33.228Z,1.86
2023-01-13T13:29:22.328Z,1.82
2023-01-13T13:32:06.663Z,1.77
2023-01-13T13:34:46.042Z,1.77
2023-01-13T13:37:34.327Z,1.70
2023-01-13T13:40:28.954Z,1.72
2023-01-13T13:43:16.412Z,1.71
2023-01-13T13:46:09.684Z,1.69
2023-01-13T13:48:38.994Z,1.65
2023-01-13T13:51:25.839Z,1.65
2023-01-13T13:53:55.973Z,1.66
2023-01-13T13:56:29.277Z,1.60
2023-01-13T13:58:58.050Z,1.66
2023-01-13T14:01:30.172Z,1.62
2023-01-13T14:04:08.329Z,1.59
2023-01-13T14:06:37.046Z,1.55
2023-01-13T14:09:05.839Z,1.55
2023-01-13T14:11:36.336Z,1.52
2023-01-13T14:14:07.555Z,1.48
2023-01-13T14:16:41.997Z,1.53
2023-01-13T14:19:28.376Z,1.53
2023-01-13T14:21:58.457Z,1.53
2023-01-13T14:24:27.395Z,1.52
2023-01-13T14:27:09.693Z,1.50
2023-01-13T14:29:39.130Z,1.51
2023-01-13T14:32:09.330Z,1.48
2023-01-13T14:34:38.155Z,1.49
2023-01-13T14:37:25.468Z,1.46
2023-01-13T14:39:54.218Z,1.47
2023-01-13T14:42:24.600Z,1.54
2023-01-13T14:44:55.160Z,1.48
2023-01-13T14:47:28.252Z,1.50
2023-01-13T14:50:03.373Z,1.51
2023-01-13T14:52:34.321Z,1.60
2023-01-13T14:55:25.959Z,1.58
2023-01-13T14:58:24.636Z,1.61
2023-01-13T15:01:14.578Z,1.63
2023-01-13T15:03:43.638Z,1.62
2023-01-13T15:06:25.706Z,1.62
2023-01-13T15:08:54.480Z,1.66
2023-01-13T15:11:28.103Z,1.65
2023-01-13T15:14:02.548Z,1.69
2023-01-13T15:16:35.299Z,1.68
2023-01-13T15:19:06.600Z,1.63
2023-01-13T15:21:36.390Z,1.72
2023-01-13T15:24:08.514Z,1.65
2023-01-13T15:26:37.547Z,1.62
2023-01-13T15:29:15.016Z,1.67
2023-01-13T15:31:51.315Z,1.71
2023-01-13T15:34:20.250Z,1.73
2023-01-13T15:36:49.192Z,1.72
2023-01-13T15:39:17.814Z,1.80
2023-01-13T15:42:03.884Z,1.77
2023-01-13T15:44:51.264Z,1.77
2023-01-13T15:47:20.206Z,1.77
2023-01-13T15:49:49.403Z,1.77
2023-01-13T15:52:21.654Z,1.73
2023-01-13T15:54:51.010Z,1.76
2023-01-13T15:57:25.972Z,1.69
2023-01-13T15:59:59.158Z,1.67
2023-01-13T16:02:29.529Z,1.68
2023-01-13T16:04:59.526Z,1.63
2023-01-13T16:07:28.433Z,1.67
2023-01-13T16:09:57.128Z,1.69
2023-01-13T16:12:25.627Z,1.72
2023-01-13T16:14:55.930Z,1.68
2023-01-13T16:17:30.452Z,1.70
2023-01-13T16:19:59.061Z,1.69
2023-01-13T16:22:27.633Z,1.65
2023-01-13T16:24:56.908Z,1.72
2023-01-13T16:27:26.835Z,1.67
2023-01-13T16:29:56.920Z,1.71
2023-01-13T16:32:25.664Z,1.69
2023-01-13T16:34:55.014Z,1.77
2023-01-13T16:37:29.043Z,1.76
2023-01-13T16:39:57.698Z,1.82
2023-01-13T16:42:26.364Z,1.77
2023-01-13T16:44:56.444Z,1.80
2023-01-13T16:47:25.204Z,1.85
2023-01-13T16:49:53.766Z,1.84
2023-01-13T16:52:22.322Z,1.88
2023-01-13T16:54:50.811Z,1.84
2023-01-13T16:57:19.418Z,1.88
2023-01-13T16:59:48.294Z,1.88
2023-01-13T17:02:20.934Z,1.90
2023-01-13T17:04:50.136Z,1.85
2023-01-13T17:07:19.583Z,1.88
2023-01-13T17:09:48.659Z,1.91
2023-01-13T17:12:17.961Z,1.90
2023-01-13T17:14:46.520Z,1.92
2023-01-13T17:17:26.042Z,1.96
2023-01-13T17:19:55.460Z,1.96
2023-01-13T17:22:24.485Z,1.96
2023-01-13T17:24:53.161Z,1.95
2023-01-13T17:27:21.848Z,1.98
2023-01-13T17:29:51.280Z,2.01
2023-01-13T17:32:25.402Z,1.98
2023-01-13T17:34:54.219Z,2.01
2023-01-13T17:37:22.795Z,2.03
2023-01-13T17:39:53.753Z,2.02
2023-01-13T17:42:23.360Z,2.00
2023-01-13T17:44:53.631Z,2.01
2023-01-13T17:47:24.464Z,2.01
2023-01-13T17:49:53.230Z,2.05
2023-01-13T17:52:21.847Z,2.03
2023-01-13T17:54:50.523Z,2.04
2023-01-13T17:57:19.063Z,2.03
2023-01-13T17:59:48.248Z,2.08
2023-01-13T18:02:16.887Z,2.07
2023-01-13T18:04:47.110Z,2.07
2023-01-13T18:07:15.791Z,2.07
2023-01-13T18:09:44.464Z,2.05
2023-01-13T18:12:13.448Z,2.04
2023-01-13T18:14:42.349Z,2.05
2023-01-13T18:17:11.420Z,2.10
2023-01-13T18:19:57.557Z,2.04
2023-01-13T18:22:44.746Z,2.09
2023-01-13T18:25:31.644Z,2.07
2023-01-13T18:28:01.537Z,2.07
2023-01-13T18:30:30.165Z,2.08
2023-01-13T18:32:59.656Z,2.06
2023-01-13T18:35:28.197Z,2.07
2023-01-13T18:37:58.617Z,2.02
2023-01-13T18:40:27.079Z,2.07
2023-01-13T18:42:55.159Z,2.08
2023-01-13T18:45:26.055Z,2.04
2023-01-13T18:47:55.954Z,2.02
2023-01-13T18:50:24.841Z,2.02
2023-01-13T18:52:53.594Z,2.07
2023-01-13T18:55:23.717Z,2.08
2023-01-13T18:57:53.375Z,2.07
2023-01-13T19:00:23.914Z,2.14
2023-01-13T19:05:36.158Z,2.18
2023-01-13T19:08:05.208Z,2.28
2023-01-13T19:10:36.321Z,2.14
2023-01-13T19:13:04.687Z,2.21
2023-01-13T19:15:33.231Z,2.32
2023-01-13T19:18:04.784Z,2.21
2023-01-13T19:20:33.424Z,2.29
2023-01-13T19:23:01.978Z,2.26
2023-01-13T19:25:30.522Z,2.30
2023-01-13T19:28:00.676Z,2.38
2023-01-13T19:30:29.256Z,2.34
2023-01-13T19:32:58.204Z,2.42
2023-01-13T19:35:26.804Z,2.37
2023-01-13T19:37:56.160Z,2.29
2023-01-13T19:40:24.651Z,2.29
2023-01-13T19:43:10.162Z,2.23
2023-01-13T19:45:40.263Z,2.25
2023-01-13T19:48:08.785Z,2.34
2023-01-13T19:50:39.044Z,2.29
2023-01-13T19:53:08.211Z,2.30
2023-01-13T19:55:36.766Z,2.35
2023-01-13T19:58:05.304Z,2.41
2023-01-13T20:00:34.402Z,2.30
2023-01-13T20:03:08.275Z,2.33
2023-01-13T20:05:36.766Z,2.34
2023-01-13T20:08:05.115Z,2.38
2023-01-13T20:10:33.737Z,2.33
2023-01-13T20:13:02.205Z,2.38
2023-01-13T20:15:31.264Z,2.36
2023-01-13T20:18:00.715Z,2.34
2023-01-13T20:20:31.201Z,2.29
2023-01-13T20:23:00.809Z,2.27
2023-01-13T20:25:29.831Z,2.21
2023-01-13T20:27:58.772Z,2.25
2023-01-13T20:30:27.310Z,2.21
2023-01-13T20:32:55.944Z,2.26
2023-01-13T20:35:29.695Z,2.12
2023-01-13T20:38:00.092Z,2.13
2023-01-13T20:40:28.606Z,2.11
2023-01-13T20:42:56.717Z,2.13
2023-01-13T20:45:26.411Z,2.23
2023-01-13T20:47:55.394Z,2.30
2023-01-13T20:50:23.927Z,2.24
2023-01-13T20:52:52.906Z,2.36
2023-01-13T20:55:23.406Z,2.30
2023-01-13T20:57:51.904Z,2.26
2023-01-13T21:00:21.408Z,2.25
2023-01-13T21:02:49.790Z,2.27
2023-01-13T21:05:18.604Z,2.31
2023-01-13T21:07:47.065Z,2.30
2023-01-13T21:10:15.670Z,2.42
2023-01-13T21:13:03.130Z,2.50
2023-01-13T21:15:31.670Z,2.48
2023-01-13T21:18:17.321Z,2.41
2023-01-13T21:20:45.860Z,2.41
2023-01-13T21:23:14.249Z,2.48
2023-01-13T21:25:43.421Z,2.41
2023-01-13T21:28:14.297Z,2.40
2023-01-13T21:30:43.998Z,2.35
2023-01-13T21:33:15.055Z,2.32
2023-01-13T21:35:43.396Z,2.44
2023-01-13T21:38:13.785Z,2.44
2023-01-13T21:40:42.478Z,2.50
2023-01-13T21:43:31.695Z,2.44
2023-01-13T21:46:32.117Z,2.53
2023-01-13T21:49:00.807Z,2.45
2023-01-13T21:51:30.150Z,2.44
2023-01-13T21:53:59.072Z,2.50
2023-01-13T21:56:28.170Z,2.47
2023-01-13T21:58:58.571Z,2.50
2023-01-13T22:01:27.194Z,2.50
2023-01-13T22:04:13.800Z,2.55
2023-01-13T22:06:43.410Z,2.41
2023-01-13T22:09:12.966Z,2.41
2023-01-13T22:11:41.488Z,2.34
2023-01-13T22:14:14.115Z,2.25
2023-01-13T22:16:49.582Z,2.30
2023-01-13T22:19:19.056Z,2.21
2023-01-13T22:21:47.583Z,2.29
2023-01-13T22:24:16.176Z,2.30
2023-01-13T22:26:44.694Z,2.26
2023-01-13T22:29:14.768Z,2.32
2023-01-13T22:31:43.397Z,2.24
2023-01-13T22:34:14.143Z,2.26
2023-01-13T22:36:42.679Z,2.33
2023-01-13T22:39:12.339Z,2.31
2023-01-13T22:41:41.043Z,2.33
2023-01-13T22:44:09.604Z,2.30
2023-01-13T22:46:39.549Z,2.39
2023-01-13T22:49:07.989Z,2.39
2023-01-13T22:51:36.460Z,2.33
2023-01-13T22:54:05.168Z,2.20
2023-01-13T22:56:34.280Z,2.27
2023-01-13T22:59:04.668Z,2.28
2023-01-13T23:01:34.927Z,2.32
2023-01-13T23:04:05.754Z,2.30
2023-01-13T23:06:35.569Z,2.26
2023-01-13T23:09:04.213Z,2.28
2023-01-13T23:11:32.731Z,2.15
2023-01-13T23:14:03.758Z,2.24
2023-01-13T23:16:32.758Z,2.16
2023-01-13T23:19:01.243Z,2.15
2023-01-13T23:21:33.733Z,2.17
2023-01-13T23:24:02.199Z,2.20
2023-01-13T23:26:31.894Z,2.18
2023-01-13T23:29:01.472Z,2.23
2023-01-13T23:31:30.728Z,2.25
2023-01-13T23:33:59.738Z,2.17
2023-01-13T23:36:30.619Z,2.24
2023-01-13T23:38:59.882Z,2.18
2023-01-13T23:41:29.611Z,2.18
2023-01-13T23:43:59.578Z,2.18
2023-01-13T23:46:29.017Z,2.19
2023-01-13T23:48:57.605Z,2.19
2023-01-13T23:51:27.787Z,2.18
2023-01-13T23:53:58.195Z,2.17
2023-01-13T23:56:29.395Z,2.23
2023-01-13T23:58:58.157Z,2.19
